createdAt,value
2023-02-01T00:00:19.457Z,0.14
2023-02-01T00:02:22.245Z,0.17
2023-02-01T00:04:24.853Z,0.16
2023-02-01T00:06:27.901Z,0.17
2023-02-01T00:08:31.020Z,0.22
2023-02-01T00:10:34.051Z,0.25
2023-02-01T00:12:36.649Z,0.23
2023-02-01T00:14:40.659Z,0.17
2023-02-01T00:16:43.398Z,0.24
2023-02-01T00:18:47.543Z,0.25
2023-02-01T00:20:50.217Z,0.22
2023-02-01T00:22:52.839Z,0.22
2023-02-01T00:24:55.498Z,0.25
2023-02-01T00:26:58.216Z,0.19
2023-02-01T00:29:01.759Z,0.19
2023-02-01T00:31:05.722Z,0.12
2023-02-01T00:33:08.524Z,0.20
2023-02-01T00:35:11.165Z,0.15
2023-02-01T00:37:13.897Z,0.11
2023-02-01T00:39:17.945Z,0.20
2023-02-01T00:41:21.794Z,0.26
2023-02-01T00:43:24.480Z,0.27
2023-02-01T00:45:27.157Z,0.26
2023-02-01T00:47:31.649Z,0.17
2023-02-01T00:49:34.344Z,0.26
2023-02-01T00:51:36.998Z,0.22
2023-02-01T00:53:39.948Z,0.21
2023-02-01T00:55:46.845Z,0.23
2023-02-01T00:57:49.557Z,0.17
2023-02-01T00:59:52.147Z,0.13
2023-02-01T01:01:54.957Z,0.08
2023-02-01T01:03:59.696Z,0.06
2023-02-01T01:06:06.260Z,0.07
2023-02-01T01:08:09.029Z,0.03
2023-02-01T01:10:11.866Z,-0.07
2023-02-01T01:12:15.261Z,-0.17
2023-02-01T01:14:18.262Z,-0.10
2023-02-01T01:16:23.339Z,-0.12
2023-02-01T01:18:26.027Z,-0.15
2023-02-01T01:20:28.639Z,-0.15
2023-02-01T01:22:31.282Z,-0.22
2023-02-01T01:24:33.986Z,-0.17
2023-02-01T01:26:36.622Z,-0.25
2023-02-01T01:28:39.513Z,-0.28
2023-02-01T01:30:42.153Z,-0.35
2023-02-01T01:32:45.111Z,-0.33
2023-02-01T01:34:47.951Z,-0.35
2023-02-01T01:36:50.578Z,-0.37
2023-02-01T01:38:53.343Z,-0.44
2023-02-01T01:40:56.034Z,-0.44
2023-02-01T01:42:59.045Z,-0.48
2023-02-01T01:45:10.064Z,-0.48
2023-02-01T01:47:13.030Z,-0.52
2023-02-01T01:49:21.703Z,-0.51
2023-02-01T01:51:27.793Z,-0.53
2023-02-01T01:53:43.055Z,-0.58
2023-02-01T01:55:49.591Z,-0.58
2023-02-01T01:58:00.599Z,-0.59
2023-02-01T02:00:12.879Z,-0.61
2023-02-01T02:02:16.660Z,-0.65
2023-02-01T02:04:20.242Z,-0.62
2023-02-01T02:06:31.707Z,-0.74
2023-02-01T02:08:34.517Z,-0.76
2023-02-01T02:10:57.605Z,-0.76
2023-02-01T02:13:00.250Z,-0.79
2023-02-01T02:15:06.396Z,-0.83
2023-02-01T02:17:10.388Z,-0.74
2023-02-01T02:19:37.852Z,-0.75
2023-02-01T02:21:52.305Z,-0.76
2023-02-01T02:24:31.846Z,-0.77
2023-02-01T02:27:02.746Z,-0.80
2023-02-01T02:29:30.211Z,-0.87
2023-02-01T02:31:42.446Z,-0.86
2023-02-01T02:33:55.841Z,-0.89
2023-02-01T02:36:01.499Z,-0.84
2023-02-01T02:38:18.647Z,-0.81
2023-02-01T02:40:39.863Z,-0.82
2023-02-01T02:43:19.806Z,-0.83
2023-02-01T02:45:49.958Z,-0.86
2023-02-01T02:48:07.642Z,-0.86
2023-02-01T02:50:32.212Z,-0.88
2023-02-01T02:52:58.534Z,-0.94
2023-02-01T02:55:05.108Z,-1.00
2023-02-01T02:57:31.619Z,-0.94
2023-02-01T02:59:54.824Z,-0.93
2023-02-01T03:02:16.587Z,-0.93
2023-02-01T03:04:21.297Z,-0.93
2023-02-01T03:06:26.260Z,-0.89
2023-02-01T03:08:30.947Z,-0.90
2023-02-01T03:10:43.440Z,-0.90
2023-02-01T03:12:58.203Z,-0.88
2023-02-01T03:15:09.452Z,-0.94
2023-02-01T03:17:16.985Z,-0.93
2023-02-01T03:19:26.698Z,-0.92
2023-02-01T03:22:06.457Z,-0.84
2023-02-01T03:26:46.806Z,-0.86
2023-02-01T03:31:17.691Z,-0.92
2023-02-01T03:33:29.847Z,-0.90
2023-02-01T03:38:02.807Z,-1.04
2023-02-01T03:40:12.203Z,-1.03
2023-02-01T03:54:42.159Z,-1.22
2023-02-01T03:56:50.450Z,-1.25
2023-02-01T04:01:18.832Z,-1.43
2023-02-01T04:03:22.987Z,-1.40
2023-02-01T04:05:25.948Z,-1.35
2023-02-01T04:07:28.604Z,-1.47
2023-02-01T04:09:31.607Z,-1.54
2023-02-01T04:11:34.267Z,-1.59
2023-02-01T04:13:36.922Z,-1.61
2023-02-01T04:15:39.636Z,-1.58
2023-02-01T04:17:42.248Z,-1.55
2023-02-01T04:19:44.909Z,-1.56
2023-02-01T04:21:47.624Z,-1.57
2023-02-01T04:23:50.318Z,-1.54
2023-02-01T04:25:53.034Z,-1.47
2023-02-01T04:27:55.799Z,-1.49
2023-02-01T04:29:58.675Z,-1.55
2023-02-01T04:32:01.347Z,-1.58
2023-02-01T04:34:04.085Z,-1.59
2023-02-01T04:36:07.024Z,-1.60
2023-02-01T04:38:09.671Z,-1.54
2023-02-01T04:40:12.854Z,-1.50
2023-02-01T04:42:15.819Z,-1.47
2023-02-01T04:44:20.090Z,-1.42
2023-02-01T04:46:23.191Z,-1.41
2023-02-01T04:48:25.949Z,-1.41
2023-02-01T04:50:28.707Z,-1.35
2023-02-01T04:52:31.363Z,-1.29
2023-02-01T04:54:34.096Z,-1.27
2023-02-01T04:56:36.799Z,-1.20
2023-02-01T04:58:39.503Z,-1.19
2023-02-01T05:00:42.149Z,-1.13
2023-02-01T05:02:44.856Z,-1.13
2023-02-01T05:04:47.594Z,-1.14
2023-02-01T05:06:50.520Z,-1.13
2023-02-01T05:08:53.187Z,-1.12
2023-02-01T05:10:56.029Z,-1.06
2023-02-01T05:13:17.529Z,-1.04
2023-02-01T05:15:20.201Z,-1.01
2023-02-01T05:17:22.937Z,-0.97
2023-02-01T05:19:25.571Z,-0.99
2023-02-01T05:21:28.260Z,-0.93
2023-02-01T05:23:31.101Z,-0.91
2023-02-01T05:25:33.774Z,-0.90
2023-02-01T05:27:36.744Z,-0.86
2023-02-01T05:29:39.435Z,-0.90
2023-02-01T05:31:42.925Z,-0.87
2023-02-01T05:33:45.628Z,-0.82
2023-02-01T05:35:48.307Z,-0.80
2023-02-01T05:37:51.142Z,-0.84
2023-02-01T05:39:53.870Z,-0.83
2023-02-01T05:41:56.904Z,-0.88
2023-02-01T05:43:59.490Z,-0.92
2023-02-01T05:46:02.405Z,-0.90
2023-02-01T05:48:05.411Z,-0.90
2023-02-01T05:50:08.762Z,-0.86
2023-02-01T05:52:11.409Z,-0.87
2023-02-01T05:54:14.263Z,-0.82
2023-02-01T05:56:16.903Z,-0.83
2023-02-01T05:58:19.505Z,-0.84
2023-02-01T06:00:22.961Z,-0.80
2023-02-01T06:02:26.180Z,-0.78
2023-02-01T06:04:28.891Z,-0.78
2023-02-01T06:06:31.575Z,-0.82
2023-02-01T06:08:34.298Z,-0.83
2023-02-01T06:10:37.912Z,-0.82
2023-02-01T06:12:40.703Z,-0.80
2023-02-01T06:14:44.578Z,-0.74
2023-02-01T06:16:47.821Z,-0.72
2023-02-01T06:18:50.676Z,-0.76
2023-02-01T06:20:57.500Z,-0.72
2023-02-01T06:23:00.170Z,-0.68
2023-02-01T06:25:04.665Z,-0.61
2023-02-01T06:27:08.151Z,-0.53
2023-02-01T06:29:14.445Z,-0.51
2023-02-01T06:31:17.350Z,-0.52
2023-02-01T06:33:20.161Z,-0.53
2023-02-01T06:35:22.847Z,-0.51
2023-02-01T06:37:31.605Z,-0.50
2023-02-01T06:39:34.626Z,-0.45
2023-02-01T06:41:37.306Z,-0.33
2023-02-01T06:43:40.057Z,-0.38
2023-02-01T06:45:43.012Z,-0.34
2023-02-01T06:47:45.805Z,-0.33
2023-02-01T06:49:48.439Z,-0.21
2023-02-01T06:51:51.214Z,-0.17
2023-02-01T06:53:54.538Z,-0.13
2023-02-01T06:56:01.186Z,-0.17
2023-02-01T06:58:04.264Z,-0.14
2023-02-01T07:00:07.550Z,-0.15
2023-02-01T07:02:13.575Z,-0.18
2023-02-01T07:04:16.463Z,-0.29
2023-02-01T07:06:19.758Z,-0.26
2023-02-01T07:08:22.597Z,-0.33
2023-02-01T07:10:25.439Z,-0.37
2023-02-01T07:12:28.470Z,-0.41
2023-02-01T07:14:31.196Z,-0.36
2023-02-01T07:16:33.884Z,-0.39
2023-02-01T07:18:36.629Z,-0.35
2023-02-01T07:20:39.300Z,-0.33
2023-02-01T07:22:41.907Z,-0.40
2023-02-01T07:24:44.625Z,-0.49
2023-02-01T07:26:49.042Z,-0.34
2023-02-01T07:28:51.712Z,-0.15
2023-02-01T07:30:54.542Z,-0.28
2023-02-01T07:33:00.566Z,-0.21
2023-02-01T07:35:03.273Z,-0.16
2023-02-01T07:37:06.684Z,-0.36
2023-02-01T07:39:09.465Z,-0.35
2023-02-01T07:41:12.436Z,-0.21
2023-02-01T07:43:15.280Z,-0.21
2023-02-01T07:45:21.298Z,-0.13
2023-02-01T07:47:24.343Z,-0.14
2023-02-01T07:49:27.190Z,-0.18
2023-02-01T07:51:29.981Z,-0.08
2023-02-01T07:53:34.228Z,-0.13
2023-02-01T07:55:39.654Z,-0.22
2023-02-01T07:57:42.862Z,-0.23
2023-02-01T08:00:04.071Z,-0.20
2023-02-01T08:02:07.249Z,-0.19
2023-02-01T08:04:12.494Z,-0.18
2023-02-01T08:06:15.413Z,-0.12
2023-02-01T08:08:18.134Z,-0.11
2023-02-01T08:10:21.472Z,-0.05
2023-02-01T08:12:25.604Z,-0.06
2023-02-01T08:14:29.222Z,-0.11
2023-02-01T08:16:32.193Z,-0.14
2023-02-01T08:18:36.659Z,-0.20
2023-02-01T08:20:42.667Z,-0.07
2023-02-01T08:22:45.839Z,0.25
2023-02-01T08:24:51.277Z,0.45
2023-02-01T08:26:54.089Z,0.50
2023-02-01T08:29:00.884Z,0.52
2023-02-01T08:31:09.976Z,0.64
2023-02-01T08:33:12.949Z,0.66
2023-02-01T08:35:15.744Z,0.80
2023-02-01T08:37:18.400Z,0.95
2023-02-01T08:39:21.076Z,0.90
2023-02-01T08:41:27.007Z,0.79
2023-02-01T08:43:29.760Z,0.91
2023-02-01T08:45:33.276Z,1.07
2023-02-01T08:47:36.565Z,1.03
2023-02-01T08:49:39.297Z,0.88
2023-02-01T08:51:41.985Z,0.81
2023-02-01T08:53:45.052Z,0.67
2023-02-01T08:55:48.312Z,0.58
2023-02-01T08:57:51.036Z,0.59
2023-02-01T08:59:53.698Z,0.61
2023-02-01T09:01:57.438Z,0.63
2023-02-01T09:04:00.195Z,0.77
2023-02-01T09:06:08.725Z,0.79
2023-02-01T09:08:13.659Z,0.77
2023-02-01T09:10:18.901Z,0.65
2023-02-01T09:12:24.251Z,0.53
2023-02-01T09:14:27.053Z,0.40
2023-02-01T09:16:29.692Z,0.26
2023-02-01T09:18:32.523Z,0.17
2023-02-01T09:20:35.340Z,0.30
2023-02-01T09:22:38.064Z,0.33
2023-02-01T09:24:40.749Z,0.30
2023-02-01T09:26:43.608Z,0.22
2023-02-01T09:28:46.317Z,0.03
2023-02-01T09:30:49.120Z,-0.06
2023-02-01T09:32:51.984Z,-0.13
2023-02-01T09:34:54.766Z,-0.15
2023-02-01T09:36:57.595Z,-0.17
2023-02-01T09:39:00.751Z,-0.19
2023-02-01T09:41:20.180Z,-0.23
2023-02-01T09:43:43.008Z,-0.16
2023-02-01T09:46:08.020Z,-0.16
2023-02-01T09:48:17.901Z,-0.14
2023-02-01T09:50:29.464Z,0.03
2023-02-01T09:52:58.832Z,0.04
2023-02-01T09:55:05.796Z,0.09
2023-02-01T09:57:32.236Z,0.30
2023-02-01T09:59:42.955Z,0.30
2023-02-01T10:01:45.729Z,0.33
2023-02-01T10:03:49.399Z,0.35
2023-02-01T10:06:07.311Z,0.35
2023-02-01T10:08:51.207Z,0.45
2023-02-01T10:11:06.089Z,0.41
2023-02-01T10:13:30.301Z,0.41
2023-02-01T10:15:45.250Z,0.30
2023-02-01T10:18:16.380Z,0.27
2023-02-01T10:20:29.765Z,0.23
2023-02-01T10:25:28.680Z,0.33
2023-02-01T10:27:36.871Z,0.19
2023-02-01T10:29:42.527Z,0.07
2023-02-01T10:31:45.995Z,0.12
2023-02-01T10:33:52.748Z,0.11
2023-02-01T10:36:04.543Z,0.03
2023-02-01T10:38:18.471Z,0.13
2023-02-01T10:40:26.994Z,0.22
2023-02-01T10:42:30.849Z,0.22
2023-02-01T10:44:41.828Z,0.28
2023-02-01T10:46:44.978Z,0.32
2023-02-01T10:48:49.778Z,0.26
2023-02-01T10:51:00.030Z,0.23
2023-02-01T10:53:08.438Z,0.27
2023-02-01T10:55:33.093Z,0.28
2023-02-01T10:57:37.439Z,0.28
2023-02-01T10:59:45.978Z,0.48
2023-02-01T11:01:52.160Z,0.53
2023-02-01T11:03:59.852Z,0.52
2023-02-01T11:06:11.843Z,0.46
2023-02-01T11:08:25.772Z,0.58
2023-02-01T11:10:44.892Z,0.68
2023-02-01T11:12:55.258Z,0.76
2023-02-01T11:15:03.738Z,0.82
2023-02-01T11:17:15.865Z,0.68
2023-02-01T11:19:19.140Z,0.50
2023-02-01T11:21:22.603Z,0.43
2023-02-01T11:23:30.916Z,0.33
2023-02-01T11:25:37.718Z,0.17
2023-02-01T11:27:53.063Z,0.01
2023-02-01T11:30:02.745Z,-0.06
2023-02-01T11:32:09.920Z,-0.04
2023-02-01T11:34:20.892Z,-0.02
2023-02-01T11:36:28.668Z,-0.10
2023-02-01T11:38:33.943Z,-0.24
2023-02-01T11:40:38.870Z,-0.40
2023-02-01T11:43:09.015Z,-0.47
2023-02-01T11:45:20.327Z,-0.60
2023-02-01T11:47:29.613Z,-0.71
2023-02-01T11:49:32.292Z,-0.59
2023-02-01T11:52:10.788Z,-0.70
2023-02-01T11:54:27.808Z,-0.65
2023-02-01T11:56:51.432Z,-0.73
2023-02-01T11:59:18.125Z,-0.77
2023-02-01T12:01:29.678Z,-0.66
2023-02-01T12:03:41.422Z,-0.64
2023-02-01T12:05:45.983Z,-0.70
2023-02-01T12:08:09.799Z,-0.70
2023-02-01T12:10:18.407Z,-0.72
2023-02-01T12:13:07.733Z,-0.71
2023-02-01T12:15:40.582Z,-0.86
2023-02-01T12:18:12.018Z,-0.83
2023-02-01T12:20:36.537Z,-0.77
2023-02-01T12:23:06.809Z,-0.97
2023-02-01T12:25:22.060Z,-0.99
2023-02-01T12:27:46.264Z,-0.87
2023-02-01T12:29:48.788Z,-0.95
2023-02-01T12:32:26.336Z,-1.13
2023-02-01T12:35:14.579Z,-1.29
2023-02-01T12:37:35.387Z,-1.30
2023-02-01T12:39:45.600Z,-1.28
2023-02-01T12:42:09.224Z,-1.33
2023-02-01T12:44:14.550Z,-1.44
2023-02-01T12:46:28.253Z,-1.51
2023-02-01T12:48:40.834Z,-1.56
2023-02-01T12:50:54.205Z,-1.71
2023-02-01T12:53:26.211Z,-1.79
2023-02-01T12:55:51.342Z,-1.83
2023-02-01T12:58:07.593Z,-1.93
2023-02-01T13:00:39.921Z,-2.06
2023-02-01T13:02:52.438Z,-2.10
2023-02-01T13:05:12.837Z,-2.24
2023-02-01T13:07:21.487Z,-2.46
2023-02-01T13:09:53.641Z,-2.60
2023-02-01T13:12:02.361Z,-2.68
2023-02-01T13:14:23.484Z,-2.79
2023-02-01T13:16:32.812Z,-2.83
2023-02-01T13:18:39.460Z,-2.91
2023-02-01T13:21:11.845Z,-2.92
2023-02-01T13:23:31.268Z,-2.91
2023-02-01T13:25:50.780Z,-2.83
2023-02-01T13:27:58.643Z,-2.81
2023-02-01T13:30:06.782Z,-2.91
2023-02-01T13:33:50.926Z,-3.01
2023-02-01T13:35:18.775Z,-2.86
2023-02-01T13:37:27.274Z,-3.00
2023-02-01T13:39:41.772Z,-3.07
2023-02-01T13:41:58.759Z,-3.06
2023-02-01T13:44:07.308Z,-3.12
2023-02-01T13:46:15.977Z,-3.00
2023-02-01T13:48:30.792Z,-2.92
2023-02-01T13:50:38.715Z,-2.89
2023-02-01T13:52:53.131Z,-2.86
2023-02-01T13:55:22.227Z,-2.84
2023-02-01T13:57:38.003Z,-2.91
2023-02-01T13:59:40.535Z,-2.94
2023-02-01T14:01:43.353Z,-3.01
2023-02-01T14:03:54.415Z,-2.98
2023-02-01T14:05:58.466Z,-3.00
2023-02-01T14:08:07.374Z,-3.01
2023-02-01T14:10:55.416Z,-3.03
2023-02-01T14:13:30.758Z,-3.04
2023-02-01T14:15:33.458Z,-3.01
2023-02-01T14:17:37.356Z,-2.98
2023-02-01T14:19:40.076Z,-2.93
2023-02-01T14:22:02.252Z,-3.06
2023-02-01T14:24:10.556Z,-3.06
2023-02-01T14:26:43.635Z,-3.19
2023-02-01T14:28:51.949Z,-3.19
2023-02-01T14:30:57.890Z,-3.35
2023-02-01T14:33:12.485Z,-3.32
2023-02-01T14:35:22.519Z,-3.28
2023-02-01T14:37:27.535Z,-3.29
2023-02-01T14:40:05.164Z,-3.28
2023-02-01T14:42:23.658Z,-3.40
2023-02-01T14:44:34.189Z,-3.47
2023-02-01T14:47:26.612Z,-3.57
2023-02-01T14:49:43.868Z,-3.55
2023-02-01T14:51:46.839Z,-3.56
2023-02-01T14:53:50.795Z,-3.65
2023-02-01T14:56:13.002Z,-3.78
2023-02-01T14:58:33.661Z,-3.80
2023-02-01T15:00:36.483Z,-3.75
2023-02-01T15:02:41.032Z,-3.74
2023-02-01T15:04:44.495Z,-3.74
2023-02-01T15:06:58.580Z,-3.63
2023-02-01T15:09:15.748Z,-3.67
2023-02-01T15:11:18.384Z,-3.70
2023-02-01T15:13:28.115Z,-3.77
2023-02-01T15:15:34.618Z,-3.88
2023-02-01T15:17:37.428Z,-3.86
2023-02-01T15:19:40.175Z,-3.79
2023-02-01T15:21:50.377Z,-3.71
2023-02-01T15:24:12.277Z,-3.75
2023-02-01T15:26:27.390Z,-3.82
2023-02-01T15:28:30.208Z,-3.79
2023-02-01T15:30:35.615Z,-3.84
2023-02-01T15:32:41.016Z,-3.96
2023-02-01T15:34:49.039Z,-4.01
2023-02-01T15:37:03.369Z,-4.05
2023-02-01T15:39:26.954Z,-4.14
2023-02-01T15:41:32.722Z,-4.23
2023-02-01T15:43:53.014Z,-4.25
2023-02-01T15:46:00.932Z,-4.28
2023-02-01T15:48:04.151Z,-4.38
2023-02-01T15:50:08.248Z,-4.39
2023-02-01T15:52:35.955Z,-4.39
2023-02-01T15:54:47.561Z,-4.51
2023-02-01T15:56:56.650Z,-4.67
2023-02-01T15:59:02.832Z,-4.79
2023-02-01T16:01:08.070Z,-4.88
2023-02-01T16:03:40.093Z,-4.94
2023-02-01T16:05:45.832Z,-5.04
2023-02-01T16:08:04.675Z,-5.19
2023-02-01T16:10:25.996Z,-5.33
2023-02-01T16:12:32.713Z,-5.44
2023-02-01T16:14:35.318Z,-5.49
2023-02-01T16:16:37.914Z,-5.59
2023-02-01T16:18:43.922Z,-5.61
2023-02-01T16:20:48.964Z,-5.62
2023-02-01T16:22:51.721Z,-5.57
2023-02-01T16:24:54.619Z,-5.54
2023-02-01T16:26:57.240Z,-5.49
2023-02-01T16:29:02.947Z,-5.45
2023-02-01T16:31:05.775Z,-5.47
2023-02-01T16:33:17.116Z,-5.46
2023-02-01T16:35:25.417Z,-5.46
2023-02-01T16:37:30.388Z,-5.46
2023-02-01T16:39:34.471Z,-5.52
2023-02-01T16:41:37.895Z,-5.48
2023-02-01T16:43:41.091Z,-5.52
2023-02-01T16:45:48.843Z,-5.57
2023-02-01T16:47:55.678Z,-5.59
2023-02-01T16:49:58.273Z,-5.62
2023-02-01T16:52:01.075Z,-5.58
2023-02-01T16:54:04.353Z,-5.58
2023-02-01T16:56:17.604Z,-5.52
2023-02-01T16:58:21.931Z,-5.46
2023-02-01T17:00:26.404Z,-5.44
2023-02-01T17:02:29.131Z,-5.38
2023-02-01T17:04:31.907Z,-5.32
2023-02-01T17:06:37.987Z,-5.21
2023-02-01T17:08:43.564Z,-5.09
2023-02-01T17:10:46.760Z,-5.02
2023-02-01T17:12:49.382Z,-4.97
2023-02-01T17:14:52.948Z,-4.86
2023-02-01T17:16:55.817Z,-4.88
2023-02-01T17:19:03.381Z,-4.86
2023-02-01T17:21:06.828Z,-4.86
2023-02-01T17:23:10.021Z,-4.81
2023-02-01T17:25:18.474Z,-4.78
2023-02-01T17:27:21.308Z,-4.74
2023-02-01T17:29:24.682Z,-4.65
2023-02-01T17:31:27.513Z,-4.59
2023-02-01T17:33:36.837Z,-4.56
2023-02-01T17:35:39.543Z,-4.53
2023-02-01T17:37:42.144Z,-4.53
2023-02-01T17:39:57.069Z,-4.49
2023-02-01T17:42:01.092Z,-4.55
2023-02-01T17:44:05.468Z,-4.69
2023-02-01T17:46:16.210Z,-4.76
2023-02-01T17:48:21.200Z,-4.75
2023-02-01T17:50:27.147Z,-4.75
2023-02-01T17:52:30.051Z,-4.73
2023-02-01T17:54:32.690Z,-4.78
2023-02-01T17:56:35.371Z,-4.80
2023-02-01T17:58:37.911Z,-4.79
2023-02-01T18:00:42.346Z,-4.80
2023-02-01T18:02:45.294Z,-4.83
2023-02-01T18:04:48.300Z,-4.83
2023-02-01T18:06:50.910Z,-4.81
2023-02-01T18:08:54.497Z,-4.82
2023-02-01T18:11:02.468Z,-4.81
2023-02-01T18:13:05.367Z,-4.85
2023-02-01T18:15:15.756Z,-4.77
2023-02-01T18:17:18.616Z,-4.78
2023-02-01T18:19:21.151Z,-4.79
2023-02-01T18:21:24.068Z,-4.71
2023-02-01T18:23:26.820Z,-4.65
2023-02-01T18:25:34.255Z,-4.61
2023-02-01T18:27:36.954Z,-4.58
2023-02-01T18:29:39.691Z,-4.53
2023-02-01T18:31:47.483Z,-4.55
2023-02-01T18:33:51.950Z,-4.58
2023-02-01T18:35:54.571Z,-4.54
2023-02-01T18:37:57.889Z,-4.46
2023-02-01T18:40:00.628Z,-4.38
2023-02-01T18:42:03.247Z,-4.38
2023-02-01T18:44:05.833Z,-4.37
2023-02-01T18:46:11.360Z,-4.40
2023-02-01T18:48:16.542Z,-4.43
2023-02-01T18:50:19.640Z,-4.52
2023-02-01T18:52:22.199Z,-4.47
2023-02-01T18:54:25.034Z,-4.39
2023-02-01T18:56:27.797Z,-4.36
2023-02-01T18:58:30.426Z,-4.37
2023-02-01T19:00:35.178Z,-4.40
2023-02-01T19:02:41.802Z,-4.43
2023-02-01T19:04:44.685Z,-4.48
2023-02-01T19:06:47.325Z,-4.51
2023-02-01T19:08:51.461Z,-4.57
2023-02-01T19:10:54.867Z,-4.62
2023-02-01T19:12:58.100Z,-4.59
2023-02-01T19:15:00.981Z,-4.59
2023-02-01T19:17:03.625Z,-4.50
2023-02-01T19:19:06.495Z,-4.50
2023-02-01T19:21:11.687Z,-4.57
2023-02-01T19:23:14.632Z,-4.53
2023-02-01T19:25:20.035Z,-4.53
2023-02-01T19:27:22.716Z,-4.55
2023-02-01T19:29:25.559Z,-4.58
2023-02-01T19:31:28.385Z,-4.65
2023-02-01T19:33:31.363Z,-4.62
2023-02-01T19:35:34.059Z,-4.67
2023-02-01T19:37:37.141Z,-4.74
2023-02-01T19:39:41.227Z,-4.91
2023-02-01T19:41:43.780Z,-4.91
2023-02-01T19:43:46.769Z,-4.90
2023-02-01T19:45:49.432Z,-4.85
2023-02-01T19:47:53.574Z,-4.84
2023-02-01T19:49:56.214Z,-4.81
2023-02-01T19:51:58.947Z,-4.88
2023-02-01T19:54:01.572Z,-4.90
2023-02-01T19:56:04.454Z,-4.93
2023-02-01T19:58:07.156Z,-4.90
2023-02-01T20:00:13.528Z,-4.97
2023-02-01T20:02:16.214Z,-4.95
2023-02-01T20:04:19.669Z,-5.05
2023-02-01T20:06:22.264Z,-5.19
2023-02-01T20:08:26.074Z,-5.30
2023-02-01T20:10:29.040Z,-5.34
2023-02-01T20:12:31.685Z,-5.35
2023-02-01T20:14:34.339Z,-5.31
2023-02-01T20:16:36.990Z,-5.26
2023-02-01T20:18:39.932Z,-5.27
2023-02-01T20:20:42.852Z,-5.31
2023-02-01T20:22:45.664Z,-5.33
2023-02-01T20:24:48.293Z,-5.40
2023-02-01T20:26:51.917Z,-5.52
2023-02-01T20:28:55.992Z,-5.60
2023-02-01T20:30:58.972Z,-5.70
2023-02-01T20:33:01.945Z,-5.76
2023-02-01T20:35:04.697Z,-5.78
2023-02-01T20:37:07.278Z,-5.91
2023-02-01T20:39:13.030Z,-5.95
2023-02-01T20:41:15.618Z,-6.01
2023-02-01T20:43:18.373Z,-6.11
2023-02-01T20:45:21.174Z,-6.22
2023-02-01T20:47:23.802Z,-6.29
2023-02-01T20:49:26.586Z,-6.42
2023-02-01T20:51:29.166Z,-6.54
2023-02-01T20:53:31.936Z,-6.62
2023-02-01T20:55:34.560Z,-6.73
2023-02-01T20:57:37.137Z,-6.86
2023-02-01T20:59:39.761Z,-6.91
2023-02-01T21:01:53.125Z,-7.00
2023-02-01T21:03:55.922Z,-7.07
2023-02-01T21:06:00.331Z,-7.12
2023-02-01T21:08:02.889Z,-7.18
2023-02-01T21:10:06.599Z,-7.29
2023-02-01T21:12:09.867Z,-7.41
2023-02-01T21:14:12.568Z,-7.57
2023-02-01T21:16:15.346Z,-7.59
2023-02-01T21:18:18.114Z,-7.65
2023-02-01T21:20:20.990Z,-7.68
2023-02-01T21:22:23.863Z,-7.72
2023-02-01T21:24:26.503Z,-7.74
2023-02-01T21:26:40.991Z,-7.78
2023-02-01T21:28:43.732Z,-7.79
2023-02-01T21:30:46.369Z,-7.77
2023-02-01T21:32:50.254Z,-7.78
2023-02-01T21:34:53.047Z,-7.76
2023-02-01T21:36:55.668Z,-7.75
2023-02-01T21:39:03.885Z,-7.82
2023-02-01T21:41:25.163Z,-7.80
2023-02-01T21:43:27.741Z,-7.87
2023-02-01T21:45:30.407Z,-7.88
2023-02-01T21:47:33.018Z,-7.96
2023-02-01T21:49:36.685Z,-7.99
2023-02-01T21:51:40.050Z,-8.03
2023-02-01T21:53:44.466Z,-8.05
2023-02-01T21:55:47.151Z,-8.09
2023-02-01T21:57:51.906Z,-8.11
2023-02-01T21:59:54.579Z,-8.13
2023-02-01T22:01:57.133Z,-8.16
2023-02-01T22:03:59.856Z,-8.17
2023-02-01T22:06:02.600Z,-8.20
2023-02-01T22:08:05.526Z,-8.22
2023-02-01T22:10:10.275Z,-8.28
2023-02-01T22:12:14.493Z,-8.34
2023-02-01T22:14:17.833Z,-8.43
2023-02-01T22:16:21.707Z,-8.47
2023-02-01T22:18:24.444Z,-8.52
2023-02-01T22:20:28.308Z,-8.61
2023-02-01T22:22:31.055Z,-8.61
2023-02-01T22:24:35.721Z,-8.63
2023-02-01T22:26:38.862Z,-8.68
2023-02-01T22:28:41.733Z,-8.68
2023-02-01T22:30:44.409Z,-8.67
2023-02-01T22:32:47.251Z,-8.64
2023-02-01T22:34:49.995Z,-8.66
2023-02-01T22:36:52.635Z,-8.69
2023-02-01T22:38:55.446Z,-8.72
2023-02-01T22:41:00.052Z,-8.76
2023-02-01T22:43:03.292Z,-8.83
2023-02-01T22:45:06.302Z,-8.88
2023-02-01T22:47:09.693Z,-8.98
2023-02-01T22:49:13.132Z,-9.06
2023-02-01T22:51:19.493Z,-9.07
2023-02-01T22:53:22.037Z,-9.04
2023-02-01T22:55:24.881Z,-9.04
2023-02-01T22:57:27.620Z,-8.96
2023-02-01T22:59:30.282Z,-8.99
2023-02-01T23:01:33.825Z,-9.01
2023-02-01T23:03:38.443Z,-9.07
2023-02-01T23:05:41.052Z,-9.04
2023-02-01T23:07:46.807Z,-9.03
2023-02-01T23:09:49.381Z,-9.00
2023-02-01T23:11:53.028Z,-8.93
2023-02-01T23:13:56.223Z,-8.90
2023-02-01T23:15:58.824Z,-8.88
2023-02-01T23:18:01.481Z,-8.85
2023-02-01T23:20:09.248Z,-8.78
2023-02-01T23:22:11.977Z,-8.72
2023-02-01T23:24:14.654Z,-8.66
2023-02-01T23:26:18.276Z,-8.63
2023-02-01T23:28:20.991Z,-8.65
2023-02-01T23:30:23.667Z,-8.67
2023-02-01T23:32:26.258Z,-8.67
2023-02-01T23:34:28.861Z,-8.67
2023-02-01T23:36:33.759Z,-8.66
2023-02-01T23:38:36.954Z,-8.66
2023-02-01T23:40:39.521Z,-8.70
2023-02-01T23:43:02.023Z,-8.75
2023-02-01T23:45:05.510Z,-8.81
2023-02-01T23:47:09.402Z,-8.89
2023-02-01T23:49:12.013Z,-8.95
2023-02-01T23:51:15.809Z,-9.03
2023-02-01T23:53:18.549Z,-9.07
2023-02-01T23:55:21.205Z,-9.12
2023-02-01T23:57:23.984Z,-9.22
2023-02-01T23:59:26.988Z,-9.25
